CDT,Max TemperatureF,Mean TemperatureF,Min TemperatureF,Max Dew PointF,MeanDew PointF,Min DewpointF,Max Humidity, Mean Humidity, Min Humidity, Max Sea Level PressureIn, Mean Sea Level PressureIn, Min Sea Level PressureIn, Max VisibilityMiles, Mean VisibilityMiles, Min VisibilityMiles, Max Wind SpeedMPH, Mean Wind SpeedMPH, Max Gust SpeedMPH,PrecipitationIn, CloudCover, Events, WindDirDegrees
2012-9-1,80,68,57,55,50,41,88,55,24,30.14,30.08,30.02,10,10,10,13,3,17,0.00,0,,101
2012-9-2,87,71,55,66,57,50,88,63,40,30.04,29.96,29.89,10,10,10,12,3,,0.00,0,,128
2012-9-3,78,73,68,68,65,61,88,78,61,29.94,29.91,29.88,10,10,7,7,2,,0.00,3,Rain-Thunderstorm,168
2012-9-4,89,74,60,70,62,57,100,78,40,29.91,29.84,29.76,10,7,0,13,2,,0.01,3,Fog-Rain-Thunderstorm,156
2012-9-5,78,68,59,61,55,50,94,69,36,29.91,29.82,29.75,10,10,3,16,4,31,0.43,1,Rain-Thunderstorm,324
2012-9-6,77,64,50,59,50,43,94,64,29,29.99,29.94,29.89,10,10,4,7,2,,0.00,1,Rain,19
2012-9-7,69,60,51,57,50,43,94,71,40,29.99,29.93,29.86,10,10,3,15,4,24,0.24,5,Rain-Thunderstorm,341
2012-9-8,73,60,46,46,44,37,87,60,31,30.00,29.93,29.75,10,10,10,21,7,30,0.00,1,,309
2012-9-9,69,60,50,52,47,45,94,69,40,30.18,30.12,29.99,10,10,10,9,4,,0.00,1,,327
2012-9-10,77,62,46,50,46,43,100,59,29,30.14,30.06,29.93,10,10,2,12,3,22,0.00,0,,177
2012-9-11,87,74,62,52,48,43,59,41,21,29.94,29.89,29.83,10,10,10,14,7,26,0.00,0,,195
2012-9-12,73,62,51,54,48,43,94,63,44,30.27,30.11,29.90,10,10,5,12,6,18,0.12,5,Rain,296
2012-9-13,68,59,48,50,46,34,94,71,28,30.35,30.31,30.28,10,10,5,9,2,,0.06,2,Rain,312
2012-9-14,71,58,46,48,43,32,93,63,23,30.34,30.30,30.27,10,10,2,7,0,,0.00,1,,325
2012-9-15,77,62,46,50,41,36,94,54,22,30.28,30.17,30.04,10,10,10,13,3,21,0.00,0,,206
2012-9-16,77,66,55,57,49,37,77,53,39,30.04,29.95,29.87,10,10,10,14,6,22,0.00,1,,223
2012-9-17,60,50,41,55,45,36,88,73,44,29.97,29.92,29.88,10,10,0,15,5,20,0.08,4,Rain,323
2012-9-18,57,45,33,39,33,23,93,64,27,30.02,29.99,29.96,10,10,10,15,4,20,0.00,2,,323
2012-9-19,71,55,39,43,37,32,81,46,25,29.96,29.79,29.65,10,10,10,17,6,29,0.00,3,,235
2012-9-20,62,52,42,41,36,28,81,56,29,29.91,29.88,29.84,10,10,7,17,4,25,0.00,1,,308
2012-9-21,60,50,39,43,38,34,87,62,39,29.89,29.83,29.77,10,10,10,17,2,24,0.00,4,,330
2012-9-22,53,45,37,41,34,30,87,68,41,30.23,30.07,29.79,10,10,10,24,12,33,0.00,6,Rain,320
2012-9-23,57,44,30,36,31,27,100,68,31,30.31,30.25,30.20,10,10,10,9,2,17,0.00,1,,341
2012-9-24,75,54,32,41,31,27,100,49,21,30.19,29.94,29.75,10,10,10,16,4,29,0.00,0,,248
2012-9-25,69,55,41,43,38,32,87,56,25,29.95,29.84,29.77,10,10,10,9,3,,0.00,0,,322
2012-9-26,64,48,33,43,36,32,93,67,30,30.21,30.09,29.94,10,10,10,6,1,,0.00,0,,6
2012-9-27,68,50,33,45,36,32,100,69,28,30.30,30.23,30.18,10,8,0,6,1,,0.00,1,Fog,95
2012-9-28,71,54,37,50,40,36,100,68,27,30.25,30.18,30.12,10,10,3,5,0,,0.00,0,,45
2012-9-29,77,59,41,46,40,36,93,61,22,30.12,30.07,30.00,10,10,7,9,1,,0.00,0,,322
2012-9-30,71,55,39,45,39,28,93,64,20,30.02,29.98,29.92,10,10,2,7,2,,0.00,0,,133